Time;durP1;ratioP1;P1;durP2;ratioP2;P2;SDS_P1;SDS_P2;PMS_P1;PMS_P2;Temp;Humidity;BMP_temperature;BMP_pressure;BME280_temperature;BME280_humidity;BME280_pressure;Samples;Min_cycle;Max_cycle;Signal;HPM_P1;HPM_P2
2022/11/16 00:04:03;;;;;;;103.70;58.17;;;11.80;20.70;;;;;;6231433;23;20387;-85
2022/11/16 00:07:11;;;;;;;48.77;27.20;;;11.80;21.00;;;;;;6206645;23;20392;-86
2022/11/16 00:10:00;;;;;;;65.90;35.23;;;11.90;21.70;;;;;;6224745;22;20383;-85
2022/11/16 00:12:33;;;;;;;38.60;22.60;;;11.90;22.20;;;;;;6227983;23;20380;-85
2022/11/16 00:14:59;;;;;;;33.40;21.87;;;11.80;21.70;;;;;;6253755;23;20483;-85
2022/11/16 00:17:32;;;;;;;37.20;22.47;;;11.80;21.20;;;;;;6251856;23;20865;-85
2022/11/16 00:20:11;;;;;;;35.97;21.50;;;11.90;22.00;;;;;;6253378;22;20185;-84
2022/11/16 00:22:39;;;;;;;35.37;18.33;;;11.90;22.00;;;;;;6253592;23;20356;-85
2022/11/16 00:25:10;;;;;;;31.70;20.30;;;11.80;22.10;;;;;;6226720;23;20946;-86
2022/11/16 00:27:36;;;;;;;39.13;21.43;;;11.80;22.00;;;;;;6253454;23;20363;-85
2022/11/16 00:30:04;;;;;;;30.03;19.27;;;11.80;22.30;;;;;;6225221;23;20431;-86
2022/11/16 00:32:30;;;;;;;38.63;20.70;;;11.90;22.00;;;;;;6225473;23;20168;-85
2022/11/16 00:34:58;;;;;;;37.37;21.30;;;11.90;22.60;;;;;;6249773;23;20708;-85
2022/11/16 00:37:26;;;;;;;40.23;23.27;;;11.90;22.40;;;;;;6252330;23;20391;-86
2022/11/16 00:39:52;;;;;;;44.30;21.73;;;11.90;23.60;;;;;;6250240;22;20432;-86
2022/11/16 00:42:24;;;;;;;56.90;25.43;;;11.80;24.50;;;;;;6222289;23;20881;-86
2022/11/16 00:44:50;;;;;;;74.77;25.13;;;11.90;25.00;;;;;;6248783;23;20156;-86
2022/11/16 00:47:15;;;;;;;64.87;23.80;;;11.90;25.10;;;;;;6250707;23;20376;-89
2022/11/16 00:49:41;;;;;;;71.07;22.37;;;11.90;26.10;;;;;;6218737;22;20222;-87
2022/11/16 00:52:09;;;;;;;46.57;23.10;;;11.80;27.60;;;;;;6243213;23;20184;-86
2022/11/16 00:54:34;;;;;;;52.60;22.60;;;11.90;28.80;;;;;;6246306;23;20552;-87
2022/11/16 00:57:00;;;;;;;51.33;23.90;;;11.90;29.50;;;;;;6244313;23;20373;-87
2022/11/16 00:59:25;;;;;;;71.90;24.53;;;11.80;28.90;;;;;;6246828;23;20145;-88
2022/11/16 01:01:51;;;;;;;48.53;22.97;;;11.80;29.30;;;;;;6218639;23;20200;-87
2022/11/16 01:04:18;;;;;;;55.70;24.30;;;11.80;29.30;;;;;;6244737;23;20157;-87
2022/11/16 01:06:46;;;;;;;49.60;22.80;;;11.80;30.00;;;;;;6245650;23;20228;-87
2022/11/16 01:09:12;;;;;;;49.00;23.00;;;11.80;31.20;;;;;;6245196;23;20471;-87
2022/11/16 01:14:29;;;;;;;51.80;21.50;;;11.80;32.30;;;;;;6244864;23;20705;-87
2022/11/16 01:16:54;;;;;;;43.80;21.63;;;11.80;32.30;;;;;;6245945;23;20399;-87
2022/11/16 01:19:28;;;;;;;41.80;21.70;;;11.90;32.00;;;;;;6219203;23;20388;-87
2022/11/16 01:21:56;;;;;;;42.17;19.47;;;11.80;32.30;;;;;;6245311;23;20187;-87
2022/11/16 01:24:25;;;;;;;42.73;20.97;;;11.90;31.70;;;;;;6218955;23;20376;-87
2022/11/16 01:26:50;;;;;;;38.00;20.43;;;11.80;31.00;;;;;;6243805;23;20372;-87
2022/11/16 01:29:16;;;;;;;44.90;21.63;;;11.80;31.40;;;;;;6243877;23;20759;-88
2022/11/16 01:31:41;;;;;;;37.20;20.30;;;11.80;31.40;;;;;;6243145;22;20169;-88
2022/11/16 01:34:08;;;;;;;41.23;20.40;;;11.80;30.30;;;;;;6244128;23;20563;-88
2022/11/16 01:36:37;;;;;;;36.70;19.40;;;11.80;31.50;;;;;;6243737;23;20360;-88
2022/11/16 01:39:11;;;;;;;34.30;17.43;;;11.80;32.50;;;;;;6243138;23;20187;-88
2022/11/16 01:41:40;;;;;;;33.80;20.30;;;11.90;33.10;;;;;;6216955;23;20912;-88
2022/11/16 01:44:31;;;;;;;38.70;20.00;;;11.90;33.10;;;;;;6242855;23;20379;-87
2022/11/16 01:47:01;;;;;;;41.77;19.90;;;11.90;33.50;;;;;;6216870;23;20728;-88
2022/11/16 01:49:36;;;;;;;43.90;20.90;;;11.90;33.40;;;;;;6258114;22;20384;-91
2022/11/16 01:52:09;;;;;;;36.40;20.23;;;12.00;33.30;;;;;;6273465;22;20452;-90
2022/11/16 01:54:38;;;;;;;43.00;19.57;;;12.00;32.60;;;;;;6264141;22;20477;-87
2022/11/16 01:57:13;;;;;;;42.60;21.00;;;11.90;31.70;;;;;;6244681;23;20380;-88
2022/11/16 01:59:42;;;;;;;41.10;19.57;;;12.00;31.40;;;;;;6241982;22;20689;-88
2022/11/16 02:02:12;;;;;;;38.97;21.03;;;12.00;30.80;;;;;;6215684;23;20483;-88
2022/11/16 02:04:50;;;;;;;41.27;20.57;;;12.00;30.00;;;;;;6241684;23;20365;-87
2022/11/16 02:11:16;;;;;;;40.83;19.43;;;11.90;28.90;;;;;;6155205;23;20407;-89
2022/11/16 02:14:25;;;;;;;47.23;18.87;;;11.90;29.40;;;;;;6242996;23;20391;-88
2022/11/16 02:17:02;;;;;;;39.93;21.23;;;11.90;29.60;;;;;;6072842;23;20419;-88
2022/11/16 02:20:10;;;;;;;41.53;18.90;;;11.80;30.10;;;;;;6097705;23;20357;-87
2022/11/16 02:22:55;;;;;;;45.60;19.40;;;11.80;31.00;;;;;;6193638;23;20415;-88
2022/11/16 02:28:42;;;;;;;40.23;19.07;;;11.80;32.00;;;;;;6211015;23;20418;-87
2022/11/16 02:31:31;;;;;;;42.23;20.53;;;11.90;31.90;;;;;;6212434;23;20407;-87
2022/11/16 02:34:21;;;;;;;40.03;20.57;;;11.80;31.40;;;;;;6183744;23;20877;-87
2022/11/16 02:40:59;;;;;;;39.43;18.20;;;11.80;31.70;;;;;;6202222;23;20428;-88
2022/11/16 02:43:53;;;;;;;44.70;20.90;;;11.90;32.20;;;;;;6210968;23;20385;-87
2022/11/16 02:46:44;;;;;;;55.60;21.30;;;11.90;32.30;;;;;;6210386;23;20395;-87
2022/11/16 02:49:45;;;;;;;50.53;21.90;;;11.90;32.20;;;;;;6198923;23;20459;-88
2022/11/16 02:52:50;;;;;;;49.07;22.63;;;11.80;32.30;;;;;;6213445;23;20435;-87
2022/11/16 02:55:57;;;;;;;48.43;21.23;;;11.80;31.60;;;;;;6214311;23;20369;-88
2022/11/16 02:58:43;;;;;;;46.60;22.60;;;11.80;30.90;;;;;;6213486;23;20953;-87
2022/11/16 03:01:38;;;;;;;55.97;22.23;;;11.80;31.60;;;;;;6187109;23;20535;-88
2022/11/16 03:04:18;;;;;;;49.57;22.00;;;11.80;32.40;;;;;;6195997;23;20385;-88
2022/11/16 03:13:24;;;;;;;46.03;20.60;;;11.90;32.60;;;;;;6213747;23;20384;-88
2022/11/16 03:15:51;;;;;;;44.47;22.20;;;11.90;32.40;;;;;;6196168;23;20436;-88
2022/11/16 03:18:18;;;;;;;44.63;20.50;;;11.90;32.10;;;;;;6217885;23;20495;-88
2022/11/16 03:21:03;;;;;;;41.97;19.17;;;11.90;31.60;;;;;;6215625;23;21041;-88
2022/11/16 03:23:28;;;;;;;39.73;17.90;;;11.90;31.30;;;;;;6217404;23;20376;-88
2022/11/16 03:25:58;;;;;;;38.20;17.20;;;11.90;30.90;;;;;;6242477;23;20482;-88
2022/11/16 03:28:30;;;;;;;35.40;18.40;;;11.90;30.40;;;;;;6244443;23;20145;-88
2022/11/16 03:31:06;;;;;;;38.47;17.87;;;11.90;29.80;;;;;;6243759;22;20396;-88
2022/11/16 03:33:54;;;;;;;35.17;15.80;;;11.90;29.00;;;;;;6244331;23;20410;-88
2022/11/16 03:36:37;;;;;;;32.33;15.67;;;11.90;28.40;;;;;;6244556;23;20720;-86
2022/11/16 03:39:19;;;;;;;33.10;16.30;;;11.90;27.70;;;;;;6215810;23;20380;-86
2022/11/16 03:41:50;;;;;;;33.30;15.73;;;11.90;27.30;;;;;;6244375;22;20441;-87
2022/11/16 03:44:18;;;;;;;25.40;12.70;;;11.80;27.10;;;;;;6215427;23;20376;-87
2022/11/16 03:46:44;;;;;;;20.60;9.40;;;11.80;26.90;;;;;;6244624;23;20388;-85
2022/11/16 03:49:10;;;;;;;19.30;10.00;;;11.80;26.50;;;;;;6243780;23;20422;-86
2022/11/16 03:51:38;;;;;;;21.80;10.00;;;11.80;26.20;;;;;;6227182;22;20795;-88
2022/11/16 03:54:06;;;;;;;15.77;8.43;;;11.80;26.20;;;;;;6244335;23;20525;-87
2022/11/16 03:56:36;;;;;;;20.93;7.80;;;11.80;26.00;;;;;;6216816;23;20388;-88
2022/11/16 03:59:56;;;;;;;18.33;8.17;;;11.80;25.80;;;;;;6243859;23;20463;-87
2022/11/16 04:24:17;;;;;;;5.23;3.00;;;11.60;25.50;;;;;;6214249;23;20365;-88
2022/11/16 04:29:59;;;;;;;7.60;3.00;;;11.60;25.80;;;;;;6212254;23;20404;-87
2022/11/16 04:39:02;;;;;;;7.57;2.97;;;11.50;25.00;;;;;;6093178;23;20388;-87
2022/11/16 04:47:33;;;;;;;7.90;3.83;;;11.50;24.30;;;;;;6207628;23;20383;-87
2022/11/16 04:50:12;;;;;;;7.37;3.87;;;11.50;24.30;;;;;;6212544;23;20404;-87
2022/11/16 04:53:10;;;;;;;10.93;4.20;;;11.50;24.80;;;;;;6211055;23;20381;-87
2022/11/16 04:55:55;;;;;;;;;;;;;;;;;;;;;
2022/11/16 04:58:41;;;;;;;10.30;5.90;;;11.50;26.10;;;;;;6214138;23;20447;-87
2022/11/16 05:04:39;;;;;;;;;;;;;;;;;;;;;
2022/11/16 05:07:30;;;;;;;9.57;6.30;;;11.50;26.20;;;;;;6214167;23;20475;-87
2022/11/16 05:13:28;;;;;;;11.67;6.13;;;11.50;26.70;;;;;;6097515;23;20388;-86
2022/11/16 05:26:46;;;;;;;11.87;6.90;;;11.50;25.70;;;;;;6157017;23;20477;-86
2022/11/16 05:36:53;;;;;;;10.37;6.37;;;11.40;21.20;;;;;;6182391;23;20801;-86
2022/11/16 05:39:55;;;;;;;10.70;6.17;;;11.30;18.30;;;;;;6202740;23;20391;-86
2022/11/16 05:43:20;;;;;;;10.50;6.30;;;11.20;15.90;;;;;;6214183;23;20406;-86
2022/11/16 05:54:09;;;;;;;;;;;;;;;;;;;;;
2022/11/16 06:00:25;;;;;;;;;;;;;;;;;;;;;
2022/11/16 06:23:20;;;;;;;;;;;;;;;;;;;;;
2022/11/16 06:26:04;;;;;;;19.17;5.37;;;10.40;1.20;;;;;;6260018;22;20489;-86
2022/11/16 06:28:55;;;;;;;13.30;5.77;;;10.40;1.00;;;;;;6250305;22;20409;-86
2022/11/16 06:35:19;;;;;;;12.33;4.50;;;10.30;1.00;;;;;;6235283;23;20379;-86
2022/11/16 06:38:07;;;;;;;11.73;4.50;;;10.20;1.00;;;;;;6246045;23;20402;-86
2022/11/16 06:41:03;;;;;;;15.37;4.90;;;10.20;1.00;;;;;;6219692;23;20481;-86
2022/11/16 11:44:40;;;;;;;6.23;1.10;;;26.90;99.90;;;;;;6239876;23;20387;-86
2022/11/16 11:48:11;;;;;;;6.20;1.17;;;27.50;99.90;;;;;;6217782;23;20706;-86
2022/11/16 11:54:52;;;;;;;5.00;1.10;;;27.90;99.90;;;;;;6211067;23;20414;-86
2022/11/16 11:57:44;;;;;;;6.00;2.00;;;26.40;99.90;;;;;;6120970;23;20387;-85
2022/11/16 12:00:53;;;;;;;4.87;1.67;;;25.10;99.90;;;;;;6245726;22;20408;-85
2022/11/16 12:03:50;;;;;;;3.23;1.00;;;23.90;99.90;;;;;;6156803;23;20832;-86
2022/11/16 15:17:57;;;;;;;;;;;;;;;;;;;;;
2022/11/16 15:43:21;;;;;;;;;;;;;;;;;;;;;
2022/11/16 15:50:15;;;;;;;10.60;5.17;;;13.90;1.00;;;;;;6008485;23;20455;-85
2022/11/16 15:56:25;;;;;;;4.30;2.60;;;13.50;1.00;;;;;;6001851;23;20390;-84
2022/11/16 15:59:48;;;;;;;6.03;1.63;;;13.40;1.00;;;;;;6213754;23;20484;-85
2022/11/16 16:02:51;;;;;;;17.87;8.70;;;13.20;95.10;;;;;;6209061;23;20430;-86
2022/11/16 16:06:00;;;;;;;12.57;8.50;;;13.10;99.90;;;;;;6188895;23;20416;-87
2022/11/16 16:11:29;;;;;;;8.30;6.37;;;13.10;99.90;;;;;;6209438;23;20407;-86
2022/11/16 16:14:24;;;;;;;6.70;3.80;;;13.10;99.90;;;;;;6190350;23;20399;-86
2022/11/16 16:20:22;;;;;;;7.90;2.90;;;13.00;99.90;;;;;;6199573;23;21021;-85
2022/11/16 16:23:26;;;;;;;9.33;3.90;;;13.00;99.90;;;;;;6215441;23;20365;-85
2022/11/16 16:25:54;;;;;;;7.03;2.20;;;12.90;99.90;;;;;;6214612;23;20373;-86
2022/11/16 16:28:23;;;;;;;18.80;4.73;;;12.90;99.90;;;;;;6215667;23;20377;-85
2022/11/16 16:30:49;;;;;;;8.53;3.00;;;12.80;99.90;;;;;;6186858;23;20420;-85
2022/11/16 16:33:38;;;;;;;3.70;2.17;;;12.80;1.00;;;;;;6216544;23;20412;-85
2022/11/16 16:36:14;;;;;;;;;;;;;;;;;;;;;
2022/11/16 16:39:44;;;;;;;61.57;55.17;;;12.60;1.00;;;;;;6219914;23;20744;-85
2022/11/16 16:42:33;;;;;;;6.20;3.80;;;12.50;1.00;;;;;;6173371;23;20448;-86
2022/11/16 16:45:29;;;;;;;;;;;;;;;;;;;;;
2022/11/16 16:48:02;;;;;;;5.33;2.37;;;12.30;99.90;;;;;;6211751;23;20456;-86
2022/11/16 16:50:28;;;;;;;7.57;5.70;;;12.20;1.00;;;;;;6213100;23;20862;-86
2022/11/16 16:53:07;;;;;;;6.50;3.80;;;12.00;99.90;;;;;;6188979;23;20396;-86
2022/11/16 16:56:17;;;;;;;;;;;;;;;;;;;;;
2022/11/16 17:02:17;;;;;;;6.40;3.40;;;11.90;29.00;;;;;;6218105;23;20420;-85
2022/11/16 17:05:16;;;;;;;3.53;1.90;;;11.90;99.90;;;;;;6169419;23;20388;-86
2022/11/16 17:08:17;;;;;;;9.20;3.13;;;11.80;1.00;;;;;;6214367;23;20389;-85
2022/11/16 17:14:55;;;;;;;8.83;3.67;;;11.90;53.90;;;;;;6210822;23;20388;-85
2022/11/16 17:31:45;;;;;;;;;;;;;;;;;;;;;
2022/11/16 17:45:53;;;;;;;10.57;3.47;;;11.80;1.00;;;;;;5873249;24;20985;-86
2022/11/16 18:26:03;;;;;;;;;;;;;;;;;;;;;
2022/11/16 18:33:05;;;;;;;;;;;;;;;;;;;;;
2022/11/16 18:36:22;;;;;;;7.67;3.70;;;11.50;1.00;;;;;;6152077;23;20457;-86
2022/11/16 18:39:07;;;;;;;4.40;2.23;;;11.50;1.00;;;;;;6149776;23;20373;-87
2022/11/16 18:42:02;;;;;;;5.13;2.90;;;11.50;1.00;;;;;;6127133;23;20915;-86
2022/11/16 18:44:59;;;;;;;4.57;2.40;;;11.50;1.00;;;;;;6241941;23;20454;-86
2022/11/16 18:50:56;;;;;;;3.47;2.50;;;11.50;1.00;;;;;;6222103;23;20411;-86
2022/11/16 18:53:23;;;;;;;8.23;3.60;;;11.60;1.00;;;;;;6156199;23;20458;-86
2022/11/16 19:01:33;;;;;;;4.90;1.80;;;11.50;1.00;;;;;;6232161;23;20455;-86
2022/11/16 19:04:11;;;;;;;5.13;2.67;;;11.50;1.00;;;;;;6215604;23;20372;-85
2022/11/16 19:06:57;;;;;;;6.57;3.13;;;11.50;1.00;;;;;;6243156;23;20864;-86
2022/11/16 19:17:07;;;;;;;;;;;;;;;;;;;;;
2022/11/16 19:27:56;;;;;;;10.30;2.33;;;11.20;1.00;;;;;;6244726;22;20487;-86
2022/11/16 19:30:50;;;;;;;4.50;1.80;;;11.20;1.00;;;;;;6225219;22;20412;-86
2022/11/16 19:33:16;;;;;;;6.70;1.83;;;11.20;1.00;;;;;;6200937;23;20394;-86
2022/11/16 19:35:49;;;;;;;6.90;2.67;;;11.20;1.00;;;;;;6243730;23;20380;-86
2022/11/16 19:38:14;;;;;;;9.23;2.37;;;11.20;1.00;;;;;;6217121;23;20191;-86
2022/11/16 19:40:42;;;;;;;4.47;2.23;;;11.20;1.00;;;;;;6244800;22;20916;-86
2022/11/16 19:43:13;;;;;;;8.73;2.20;;;11.30;1.00;;;;;;6216525;23;20491;-86
2022/11/16 19:46:30;;;;;;;7.27;2.20;;;11.30;1.00;;;;;;6244368;23;20422;-86
2022/11/16 19:52:30;;;;;;;;;;;;;;;;;;;;;
2022/11/16 20:06:19;;;;;;;5.70;2.70;;;11.20;1.00;;;;;;6184412;23;20861;-86
2022/11/16 20:09:38;;;;;;;4.50;2.20;;;11.20;1.00;;;;;;6242823;23;20391;-86
2022/11/16 20:12:28;;;;;;;;;;;;;;;;;;;;;
2022/11/16 20:15:02;;;;;;;4.77;2.60;;;11.10;45.80;;;;;;6245321;23;20949;-86
2022/11/16 20:24:38;;;;;;;5.67;4.07;;;11.10;55.10;;;;;;6120563;23;20423;-86
2022/11/16 20:27:24;;;;;;;6.10;3.80;;;11.10;92.60;;;;;;6139644;23;20402;-86
2022/11/16 20:30:16;;;;;;;9.57;6.37;;;11.10;99.90;;;;;;6238274;22;20398;-86
2022/11/16 20:33:16;;;;;;;7.83;4.20;;;11.10;93.20;;;;;;6185500;23;20391;-86
2022/11/16 20:39:38;;;;;;;4.10;2.07;;;11.20;54.90;;;;;;6232806;22;20728;-86
2022/11/16 20:42:30;;;;;;;7.70;2.57;;;11.20;59.30;;;;;;6242334;23;20466;-86
2022/11/16 20:45:05;;;;;;;6.80;2.20;;;11.10;87.10;;;;;;6244022;22;20368;-86
2022/11/16 20:47:42;;;;;;;4.50;2.33;;;11.10;99.90;;;;;;6241800;23;20468;-86
2022/11/16 20:50:39;;;;;;;6.10;2.93;;;11.10;99.90;;;;;;6242188;22;20748;-86
2022/11/16 20:53:43;;;;;;;5.93;2.97;;;11.10;99.90;;;;;;6191089;22;20734;-86
2022/11/16 20:56:41;;;;;;;6.00;2.20;;;11.10;99.90;;;;;;6221421;23;20837;-87
2022/11/16 21:00:00;;;;;;;;;;;;;;;;;;;;;
2022/11/16 21:06:28;;;;;;;18.23;4.67;;;11.10;99.90;;;;;;6234595;22;20386;-86
2022/11/16 21:19:42;;;;;;;4.00;2.40;;;11.10;99.90;;;;;;5992880;23;20402;-86
2022/11/16 21:22:31;;;;;;;4.47;2.27;;;11.00;99.90;;;;;;5994929;23;20547;-86
2022/11/16 21:28:37;;;;;;;4.10;2.30;;;11.00;99.90;;;;;;6232696;22;20889;-87
2022/11/16 22:20:31;;;;;;;14.67;7.60;;;10.50;1.00;;;;;;6242017;22;20451;-86
2022/11/16 22:23:05;;;;;;;13.13;8.40;;;10.50;1.00;;;;;;6242279;23;20407;-85
2022/11/16 22:25:48;;;;;;;16.83;8.73;;;10.50;1.00;;;;;;6219439;23;20232;-85
2022/11/16 22:28:52;;;;;;;16.57;9.37;;;10.40;1.00;;;;;;6218781;23;20450;-85
2022/11/16 22:31:28;;;;;;;22.33;9.83;;;10.50;1.00;;;;;;6210640;23;20414;-85
2022/11/16 22:33:59;;;;;;;17.13;8.00;;;10.50;1.00;;;;;;6247418;22;20382;-85
2022/11/16 22:37:04;;;;;;;25.07;13.03;;;10.40;1.00;;;;;;6247318;23;20931;-87
2022/11/16 22:39:50;;;;;;;17.53;9.40;;;10.40;1.00;;;;;;6166757;23;20399;-85
2022/11/16 22:45:27;;;;;;;21.07;11.00;;;10.40;1.00;;;;;;6244799;23;20376;-85
2022/11/16 22:48:05;;;;;;;15.80;10.17;;;10.40;1.00;;;;;;6216752;23;20383;-86
2022/11/16 22:51:14;;;;;;;24.23;10.47;;;10.40;1.00;;;;;;6215665;23;20938;-86
2022/11/16 22:54:39;;;;;;;17.83;9.40;;;10.40;1.00;;;;;;6231765;22;20407;-85
2022/11/16 22:57:12;;;;;;;21.13;10.50;;;10.40;1.00;;;;;;6202396;23;20383;-86
2022/11/16 22:59:37;;;;;;;20.03;9.73;;;10.40;1.00;;;;;;6245191;23;20357;-85
2022/11/16 23:02:07;;;;;;;21.93;10.50;;;10.40;1.00;;;;;;6245679;23;20465;-86
2022/11/16 23:04:40;;;;;;;18.83;9.50;;;10.40;1.00;;;;;;6218219;23;20157;-85
2022/11/16 23:08:06;;;;;;;;;;;;;;;;;;;;;
2022/11/16 23:39:04;;;;;;;12.77;8.57;;;10.40;8.30;;;;;;6214511;22;20436;-85
2022/11/16 23:44:46;;;;;;;25.03;11.33;;;10.40;5.30;;;;;;6184428;23;20377;-86
2022/11/16 23:47:48;;;;;;;18.90;9.10;;;10.40;1.00;;;;;;6169496;23;20395;-84
2022/11/16 23:50:39;;;;;;;14.13;7.40;;;10.50;1.00;;;;;;6183883;23;20393;-86
2022/11/16 23:53:31;;;;;;;9.00;6.33;;;10.50;1.00;;;;;;6184517;23;20362;-86
2022/11/16 23:56:40;;;;;;;11.03;6.50;;;10.50;1.00;;;;;;6169907;23;20433;-86
